createdAt,value
2018-03-28T00:01:55.733Z,99.90
2018-03-28T00:04:37.422Z,99.90
2018-03-28T00:07:16.689Z,99.90
2018-03-28T00:10:14.111Z,99.90
2018-03-28T00:13:16.668Z,99.90
2018-03-28T00:16:02.469Z,99.90
2018-03-28T00:18:49.476Z,99.90
2018-03-28T00:21:38.509Z,99.90
2018-03-28T00:24:31.814Z,99.90
2018-03-28T00:27:15.429Z,99.90
2018-03-28T01:28:29.975Z,99.90
2018-03-28T01:31:24.952Z,99.90
2018-03-28T01:34:18.277Z,99.90
2018-03-28T01:37:47.319Z,99.90
2018-03-28T04:59:47.993Z,99.90
2018-03-28T05:02:43.510Z,99.90
2018-03-28T05:05:35.569Z,99.90
2018-03-28T05:08:52.450Z,99.90
2018-03-28T05:11:40.941Z,99.90
2018-03-28T05:14:28.560Z,99.90
2018-03-28T05:17:26.778Z,99.90
2018-03-28T05:20:08.146Z,99.90
2018-03-28T05:22:56.720Z,99.90
2018-03-28T05:25:42.744Z,99.90
2018-03-28T05:29:08.884Z,99.90
2018-03-28T05:49:50.751Z,99.90
2018-03-28T05:56:18.016Z,99.90
2018-03-28T05:59:16.577Z,99.90
2018-03-28T06:07:44.843Z,99.90
2018-03-28T06:29:34.047Z,99.90
2018-03-28T06:48:52.206Z,99.90
2018-03-28T06:54:23.931Z,99.90
2018-03-28T06:57:02.219Z,99.90
2018-03-28T06:59:48.681Z,99.90
2018-03-28T07:02:35.203Z,99.90
2018-03-28T07:05:23.644Z,99.90
2018-03-28T07:08:13.137Z,99.90
2018-03-28T07:11:20.041Z,99.90
2018-03-28T07:14:25.786Z,99.90
2018-03-28T07:17:12.608Z,99.90
2018-03-28T07:25:35.100Z,99.90
2018-03-28T07:28:23.694Z,99.90
2018-03-28T07:31:20.490Z,99.90
2018-03-28T07:34:08.003Z,99.90
2018-03-28T07:37:01.764Z,99.90
2018-03-28T07:39:48.890Z,99.90
2018-03-28T07:42:31.703Z,99.90
2018-03-28T07:45:23.612Z,99.90
2018-03-28T07:48:10.039Z,99.90
2018-03-28T07:50:56.959Z,99.90
2018-03-28T07:53:39.387Z,99.90
2018-03-28T07:56:29.866Z,99.90
2018-03-28T07:59:23.672Z,99.90
2018-03-28T08:02:17.349Z,99.90
2018-03-28T08:05:02.329Z,99.90
2018-03-28T08:10:55.729Z,99.90
2018-03-28T08:13:59.200Z,99.90
2018-03-28T08:25:19.177Z,99.90
2018-03-28T08:28:07.088Z,99.70
2018-03-28T08:30:59.286Z,99.30
2018-03-28T08:37:18.826Z,98.60
2018-03-28T08:40:06.807Z,98.80
2018-03-28T08:42:53.131Z,98.70
2018-03-28T09:04:55.479Z,98.50
2018-03-28T09:07:55.451Z,97.90
2018-03-28T09:13:51.231Z,98.20
2018-03-28T09:19:54.460Z,97.90
2018-03-28T09:22:46.837Z,98.50
2018-03-28T09:25:34.550Z,98.60
2018-03-28T09:31:20.009Z,98.10
2018-03-28T09:37:01.973Z,98.30
2018-03-28T09:42:44.449Z,98.70
2018-03-28T09:46:30.372Z,98.50
2018-03-28T09:52:30.948Z,97.90
2018-03-28T09:55:25.573Z,97.80
2018-03-28T09:59:06.247Z,97.40
2018-03-28T10:02:02.782Z,97.40
2018-03-28T10:05:12.078Z,96.70
2018-03-28T10:08:12.453Z,96.70
2018-03-28T10:11:15.150Z,97.40
2018-03-28T10:17:18.985Z,97.40
2018-03-28T10:20:27.519Z,97.90
2018-03-28T10:23:33.592Z,97.80
2018-03-28T10:26:22.744Z,97.80
2018-03-28T10:35:54.151Z,97.70
2018-03-28T10:38:57.576Z,97.80
2018-03-28T10:44:43.500Z,97.60
2018-03-28T10:59:43.994Z,97.50
2018-03-28T11:02:49.760Z,98.10
2018-03-28T11:05:53.670Z,99.00
2018-03-28T11:08:43.366Z,99.90
2018-03-28T11:15:29.263Z,99.90
2018-03-28T11:18:20.015Z,99.90
2018-03-28T11:32:29.602Z,99.90
2018-03-28T11:35:33.370Z,99.90
2018-03-28T11:44:46.502Z,99.90
2018-03-28T11:47:35.759Z,99.90
2018-03-28T11:50:53.828Z,99.90
2018-03-28T12:11:41.332Z,99.90
2018-03-28T12:14:29.690Z,99.90
2018-03-28T12:30:11.628Z,99.90
2018-03-28T12:36:07.062Z,99.90
2018-03-28T12:39:06.568Z,99.90
2018-03-28T12:45:40.546Z,99.90
2018-03-28T12:54:33.402Z,99.90
2018-03-28T12:57:34.061Z,99.90
2018-03-28T13:00:24.547Z,99.90
2018-03-28T13:08:34.713Z,99.90
2018-03-28T13:14:45.111Z,99.90
2018-03-28T13:17:48.860Z,99.90
2018-03-28T13:20:47.535Z,99.90
2018-03-28T13:42:37.744Z,99.90
2018-03-28T13:46:08.923Z,99.90
2018-03-28T13:49:14.150Z,99.90
2018-03-28T13:52:18.455Z,99.90
2018-03-28T13:55:12.919Z,99.90
